createdAt,value
2019-03-27T00:00:16.087Z,43.43
2019-03-27T00:02:45.243Z,43.36
2019-03-27T00:05:15.046Z,43.39
2019-03-27T00:07:44.253Z,43.43
2019-03-27T00:10:13.695Z,43.37
2019-03-27T00:12:42.879Z,43.78
2019-03-27T00:15:13.873Z,43.78
2019-03-27T00:17:43.482Z,43.56
2019-03-27T00:20:13.086Z,43.55
2019-03-27T00:22:42.303Z,43.67
2019-03-27T00:25:11.906Z,43.55
2019-03-27T00:27:41.132Z,43.55
2019-03-27T00:30:12.435Z,43.40
2019-03-27T00:32:41.728Z,43.37
2019-03-27T00:35:11.229Z,43.40
2019-03-27T00:37:40.473Z,43.52
2019-03-27T00:40:09.911Z,43.63
2019-03-27T00:42:39.125Z,43.84
2019-03-27T00:45:09.514Z,43.63
2019-03-27T00:47:38.751Z,43.89
2019-03-27T00:50:08.585Z,43.65
2019-03-27T00:52:37.710Z,43.39
2019-03-27T00:55:09.854Z,43.39
2019-03-27T00:57:39.038Z,43.59
2019-03-27T01:00:13.876Z,43.69
2019-03-27T01:02:43.032Z,43.57
2019-03-27T01:05:12.253Z,43.75
2019-03-27T01:07:41.396Z,44.01
2019-03-27T01:10:10.970Z,43.83
2019-03-27T01:12:40.062Z,43.76
2019-03-27T01:15:09.660Z,43.67
2019-03-27T01:17:38.831Z,43.67
2019-03-27T01:20:08.024Z,43.57
2019-03-27T01:22:37.241Z,43.60
2019-03-27T01:25:07.693Z,43.76
2019-03-27T01:27:37.001Z,43.98
2019-03-27T01:30:06.796Z,44.00
2019-03-27T01:32:35.945Z,44.14
2019-03-27T01:35:05.547Z,43.97
2019-03-27T01:37:34.692Z,44.11
2019-03-27T01:40:03.932Z,44.08
2019-03-27T01:42:33.156Z,44.14
2019-03-27T01:45:02.362Z,44.13
2019-03-27T01:47:31.535Z,44.36
2019-03-27T01:50:00.752Z,44.25
2019-03-27T01:52:29.983Z,44.43
2019-03-27T01:54:59.245Z,44.97
2019-03-27T01:57:28.380Z,45.48
2019-03-27T01:59:57.586Z,45.67
2019-03-27T02:02:26.758Z,45.79
2019-03-27T02:04:55.890Z,45.82
2019-03-27T02:07:25.040Z,45.94
2019-03-27T02:09:54.330Z,45.94
2019-03-27T02:12:23.461Z,45.94
2019-03-27T02:14:52.685Z,46.22
2019-03-27T02:17:21.929Z,46.15
2019-03-27T02:19:51.184Z,46.34
2019-03-27T02:22:20.410Z,46.56
2019-03-27T02:24:49.586Z,45.99
2019-03-27T02:27:18.794Z,46.59
2019-03-27T02:29:47.960Z,46.66
2019-03-27T02:32:20.806Z,46.66
2019-03-27T02:34:48.082Z,46.64
2019-03-27T02:37:17.220Z,47.13
2019-03-27T02:39:46.391Z,47.05
2019-03-27T02:42:33.446Z,47.32
2019-03-27T02:45:02.687Z,47.32
2019-03-27T02:47:31.910Z,47.19
2019-03-27T02:50:01.163Z,47.66
2019-03-27T02:52:30.455Z,47.37
2019-03-27T02:54:59.585Z,47.37
2019-03-27T02:57:28.733Z,47.51
2019-03-27T02:59:57.859Z,47.62
2019-03-27T03:02:27.136Z,47.38
2019-03-27T03:04:56.354Z,47.43
2019-03-27T03:07:25.523Z,47.48
2019-03-27T03:09:54.747Z,47.72
2019-03-27T03:12:23.958Z,47.90
2019-03-27T03:14:53.217Z,47.96
2019-03-27T03:17:22.421Z,47.96
2019-03-27T03:19:51.629Z,48.23
2019-03-27T03:22:20.823Z,48.29
2019-03-27T03:24:49.974Z,48.29
2019-03-27T03:27:19.112Z,48.50
2019-03-27T03:29:48.348Z,48.60
2019-03-27T03:32:17.489Z,48.81
2019-03-27T03:34:46.745Z,48.70
2019-03-27T03:37:15.818Z,48.55
2019-03-27T03:39:45.022Z,48.50
2019-03-27T03:42:14.216Z,48.50
2019-03-27T03:44:43.476Z,48.63
2019-03-27T03:47:12.543Z,48.63
2019-03-27T03:49:41.762Z,48.64
2019-03-27T03:52:11.208Z,48.45
2019-03-27T03:54:40.739Z,48.45
2019-03-27T03:57:10.547Z,48.86
2019-03-27T03:59:41.090Z,49.06
2019-03-27T04:02:10.303Z,48.88
2019-03-27T04:04:41.677Z,48.88
2019-03-27T04:07:10.924Z,49.27
2019-03-27T04:09:40.206Z,49.46
2019-03-27T04:12:09.408Z,49.56
2019-03-27T04:14:38.521Z,49.56
2019-03-27T04:17:17.181Z,49.56
2019-03-27T04:19:38.920Z,49.81
2019-03-27T04:22:08.024Z,49.88
2019-03-27T04:24:37.284Z,49.99
2019-03-27T04:27:06.354Z,50.15
2019-03-27T04:29:35.447Z,50.15
2019-03-27T04:32:04.586Z,50.20
2019-03-27T04:34:33.735Z,50.67
2019-03-27T04:37:02.916Z,50.67
2019-03-27T04:39:32.051Z,50.39
2019-03-27T04:42:01.267Z,50.47
2019-03-27T04:44:30.483Z,51.20
2019-03-27T04:46:59.621Z,51.20
2019-03-27T04:49:28.690Z,51.24
2019-03-27T04:51:57.861Z,51.16
2019-03-27T04:54:27.260Z,51.16
2019-03-27T04:56:56.302Z,51.29
2019-03-27T04:59:25.421Z,51.09
2019-03-27T05:01:54.764Z,51.09
2019-03-27T05:04:24.581Z,51.32
2019-03-27T05:06:53.803Z,51.26
2019-03-27T05:09:23.007Z,51.43
2019-03-27T05:11:52.203Z,51.39
2019-03-27T05:14:21.392Z,51.39
2019-03-27T05:16:50.545Z,50.91
2019-03-27T05:19:19.601Z,50.50
2019-03-27T05:21:48.871Z,50.50
2019-03-27T05:24:18.005Z,50.76
2019-03-27T05:26:47.159Z,50.39
2019-03-27T05:29:16.252Z,50.17
2019-03-27T05:31:45.457Z,50.17
2019-03-27T05:34:14.596Z,50.31
2019-03-27T05:36:43.776Z,50.33
2019-03-27T05:39:14.547Z,50.04
2019-03-27T05:41:43.704Z,49.94
2019-03-27T05:44:12.976Z,50.02
2019-03-27T05:46:42.192Z,49.94
2019-03-27T05:49:11.331Z,50.02
2019-03-27T05:51:41.570Z,49.44
2019-03-27T05:54:10.854Z,49.69
2019-03-27T05:56:39.934Z,49.38
2019-03-27T05:59:09.108Z,49.24
2019-03-27T06:01:38.317Z,48.78
2019-03-27T06:04:07.527Z,48.65
2019-03-27T06:06:36.701Z,48.12
2019-03-27T06:09:06.895Z,48.13
2019-03-27T06:11:36.030Z,48.40
2019-03-27T06:14:05.267Z,48.22
2019-03-27T06:16:34.438Z,47.93
2019-03-27T06:19:03.543Z,47.59
2019-03-27T06:21:32.799Z,47.16
2019-03-27T06:24:02.006Z,46.89
2019-03-27T06:26:31.277Z,47.76
2019-03-27T06:29:00.441Z,47.45
2019-03-27T06:31:29.609Z,47.58
2019-03-27T06:33:58.815Z,47.19
2019-03-27T06:36:27.995Z,46.74
2019-03-27T06:38:57.261Z,46.70
2019-03-27T06:41:26.436Z,46.70
2019-03-27T06:43:55.758Z,46.21
2019-03-27T06:46:25.116Z,46.24
2019-03-27T06:48:54.263Z,46.92
2019-03-27T06:51:25.153Z,45.90
2019-03-27T06:53:54.461Z,46.35
2019-03-27T06:56:23.672Z,46.12
2019-03-27T06:58:54.914Z,45.77
2019-03-27T07:01:23.740Z,45.61
2019-03-27T07:03:52.884Z,45.21
2019-03-27T07:06:22.068Z,44.86
2019-03-27T07:08:51.204Z,44.86
2019-03-27T07:11:20.418Z,43.88
2019-03-27T07:13:49.652Z,43.54
2019-03-27T07:16:18.877Z,43.96
2019-03-27T07:18:48.015Z,43.96
2019-03-27T07:21:17.116Z,43.07
2019-03-27T07:23:46.248Z,42.47
2019-03-27T07:26:15.388Z,43.00
2019-03-27T07:28:44.560Z,42.60
2019-03-27T07:31:13.644Z,42.81
2019-03-27T07:33:42.854Z,42.22
2019-03-27T07:36:12.049Z,41.78
2019-03-27T07:38:41.224Z,41.73
2019-03-27T07:41:10.547Z,40.98
2019-03-27T07:43:39.880Z,40.11
2019-03-27T07:46:09.042Z,39.71
2019-03-27T07:48:38.262Z,39.24
2019-03-27T07:51:07.441Z,38.84
2019-03-27T07:53:36.657Z,38.50
2019-03-27T07:56:05.881Z,37.93
2019-03-27T07:58:35.090Z,37.50
2019-03-27T08:01:04.297Z,36.12
2019-03-27T08:03:33.617Z,35.34
2019-03-27T08:06:02.852Z,34.80
2019-03-27T08:08:32.063Z,35.26
2019-03-27T08:11:01.206Z,34.52
2019-03-27T08:13:30.371Z,33.58
2019-03-27T08:15:59.579Z,33.93
2019-03-27T08:18:28.748Z,33.47
2019-03-27T08:20:57.996Z,33.48
2019-03-27T08:23:27.155Z,33.49
2019-03-27T08:25:56.289Z,33.52
2019-03-27T08:28:25.463Z,33.10
2019-03-27T08:30:54.597Z,32.42
2019-03-27T08:33:23.762Z,32.03
2019-03-27T08:35:53.047Z,32.62
2019-03-27T08:38:22.259Z,32.88
2019-03-27T08:40:51.421Z,33.36
2019-03-27T08:43:23.956Z,33.24
2019-03-27T08:45:51.567Z,33.20
2019-03-27T08:48:20.793Z,32.13
2019-03-27T08:50:50.039Z,31.47
2019-03-27T08:53:19.298Z,30.41
2019-03-27T08:55:48.502Z,29.81
2019-03-27T08:58:17.769Z,29.40
2019-03-27T09:00:54.025Z,28.66
2019-03-27T09:03:23.253Z,27.64
2019-03-27T09:05:52.489Z,27.74
2019-03-27T09:08:21.777Z,27.78
2019-03-27T09:10:51.171Z,27.88
2019-03-27T09:13:20.416Z,27.93
2019-03-27T09:15:49.685Z,28.08
2019-03-27T09:18:18.894Z,28.61
2019-03-27T09:20:48.074Z,28.41
2019-03-27T09:23:17.226Z,27.83
2019-03-27T09:25:46.422Z,28.17
2019-03-27T09:28:15.670Z,28.36
2019-03-27T09:30:44.948Z,28.17
2019-03-27T09:33:14.170Z,27.12
2019-03-27T09:35:43.502Z,27.11
2019-03-27T09:38:12.792Z,26.69
2019-03-27T09:40:42.001Z,26.63
2019-03-27T09:43:11.251Z,27.11
2019-03-27T09:45:40.425Z,28.42
2019-03-27T09:48:09.626Z,28.80
2019-03-27T09:50:38.868Z,30.12
2019-03-27T09:53:08.159Z,30.31
2019-03-27T09:55:37.292Z,30.24
2019-03-27T09:58:06.515Z,30.10
2019-03-27T10:00:53.542Z,30.06
2019-03-27T10:03:22.790Z,30.49
2019-03-27T10:05:51.987Z,31.09
2019-03-27T10:08:21.314Z,30.96
2019-03-27T10:10:51.318Z,31.07
2019-03-27T10:13:20.527Z,30.30
2019-03-27T10:15:49.738Z,30.64
2019-03-27T10:18:19.021Z,31.65
2019-03-27T10:20:48.158Z,31.62
2019-03-27T10:23:17.284Z,32.24
2019-03-27T10:25:46.532Z,31.86
2019-03-27T10:28:15.670Z,30.87
2019-03-27T10:30:44.885Z,31.44
2019-03-27T10:33:15.304Z,29.80
2019-03-27T10:35:44.810Z,29.79
2019-03-27T10:38:14.019Z,28.47
2019-03-27T10:40:43.270Z,28.71
2019-03-27T10:43:12.478Z,28.43
2019-03-27T10:45:41.747Z,28.65
2019-03-27T10:48:11.050Z,27.79
2019-03-27T10:50:40.238Z,27.00
2019-03-27T10:53:09.370Z,27.17
2019-03-27T10:55:38.617Z,28.49
2019-03-27T10:58:07.822Z,28.48
2019-03-27T11:00:37.021Z,28.92
2019-03-27T11:03:06.297Z,28.55
2019-03-27T11:05:35.355Z,28.44
2019-03-27T11:08:04.656Z,28.41
2019-03-27T11:10:33.967Z,28.36
2019-03-27T11:13:03.190Z,28.49
2019-03-27T11:15:32.622Z,28.21
2019-03-27T11:18:02.022Z,29.63
2019-03-27T11:20:31.790Z,29.49
2019-03-27T11:23:01.484Z,29.94
2019-03-27T11:25:33.057Z,30.14
2019-03-27T11:28:01.912Z,30.48
2019-03-27T11:30:38.314Z,30.28
2019-03-27T11:33:08.811Z,29.38
2019-03-27T11:35:38.024Z,28.17
2019-03-27T11:38:07.377Z,29.02
2019-03-27T11:40:36.512Z,29.68
2019-03-27T11:43:06.047Z,28.72
2019-03-27T11:45:35.334Z,27.27
2019-03-27T11:48:08.059Z,26.63
2019-03-27T11:50:44.604Z,26.71
2019-03-27T11:53:07.601Z,26.95
2019-03-27T11:55:36.816Z,27.04
2019-03-27T11:58:06.401Z,27.04
2019-03-27T12:00:35.644Z,27.75
2019-03-27T12:03:04.855Z,28.03
2019-03-27T12:05:34.082Z,27.94
2019-03-27T12:08:03.507Z,28.06
2019-03-27T12:10:33.008Z,27.66
2019-03-27T12:13:02.232Z,26.69
2019-03-27T12:15:37.331Z,26.58
2019-03-27T12:18:07.914Z,25.52
2019-03-27T12:20:37.342Z,24.77
2019-03-27T12:23:06.595Z,24.21
2019-03-27T12:25:35.882Z,25.60
2019-03-27T12:28:05.481Z,25.84
2019-03-27T12:30:36.418Z,25.56
2019-03-27T12:33:07.237Z,26.03
2019-03-27T12:35:37.302Z,26.33
2019-03-27T12:38:06.908Z,26.48
2019-03-27T12:40:36.756Z,27.07
2019-03-27T12:43:06.292Z,26.90
2019-03-27T12:45:37.405Z,27.05
2019-03-27T12:48:06.905Z,27.48
2019-03-27T12:50:36.496Z,26.94
2019-03-27T12:53:06.060Z,27.16
2019-03-27T12:55:36.505Z,27.39
2019-03-27T12:58:05.821Z,26.95
2019-03-27T13:00:35.471Z,26.94
2019-03-27T13:03:05.480Z,26.84
2019-03-27T13:05:34.686Z,26.46
2019-03-27T13:08:04.148Z,27.22
2019-03-27T13:10:33.415Z,26.94
2019-03-27T13:13:02.722Z,26.96
2019-03-27T13:15:32.300Z,27.45
2019-03-27T13:18:01.613Z,27.56
2019-03-27T13:20:30.921Z,28.09
2019-03-27T13:23:00.164Z,28.31
2019-03-27T13:25:29.374Z,28.14
2019-03-27T13:27:58.661Z,27.47
2019-03-27T13:30:27.898Z,26.09
2019-03-27T13:32:57.107Z,26.76
2019-03-27T13:35:26.392Z,26.71
2019-03-27T13:37:55.858Z,26.10
2019-03-27T13:40:25.128Z,26.41
2019-03-27T13:42:54.639Z,26.65
2019-03-27T13:45:24.495Z,27.12
2019-03-27T13:47:53.833Z,27.13
2019-03-27T13:50:24.255Z,26.85
2019-03-27T13:52:54.106Z,26.77
2019-03-27T13:55:23.414Z,25.81
2019-03-27T13:57:53.028Z,25.96
2019-03-27T14:00:22.257Z,25.29
2019-03-27T14:02:51.608Z,24.82
2019-03-27T14:05:22.384Z,24.76
2019-03-27T14:07:51.862Z,24.35
2019-03-27T14:10:21.066Z,24.56
2019-03-27T14:12:50.375Z,24.54
2019-03-27T14:15:20.491Z,24.49
2019-03-27T14:17:49.702Z,24.98
2019-03-27T14:20:19.187Z,24.93
2019-03-27T14:22:48.651Z,24.30
2019-03-27T14:25:21.895Z,23.87
2019-03-27T14:27:49.847Z,24.40
2019-03-27T14:30:21.999Z,24.48
2019-03-27T14:32:51.301Z,25.09
2019-03-27T14:35:20.740Z,26.08
2019-03-27T14:37:50.468Z,26.45
2019-03-27T14:40:19.706Z,26.80
2019-03-27T14:42:48.950Z,27.12
2019-03-27T14:45:18.129Z,27.20
2019-03-27T14:47:47.408Z,27.15
2019-03-27T14:50:16.627Z,27.28
2019-03-27T14:52:45.844Z,27.20
2019-03-27T14:55:15.642Z,27.35
2019-03-27T14:57:46.511Z,27.62
2019-03-27T15:00:16.358Z,27.75
2019-03-27T15:02:45.868Z,27.93
2019-03-27T15:05:15.765Z,28.23
2019-03-27T15:07:45.106Z,28.20
2019-03-27T15:10:14.683Z,28.34
2019-03-27T15:15:30.766Z,28.72
2019-03-27T15:18:00.124Z,28.86
2019-03-27T15:20:29.314Z,28.90
2019-03-27T15:22:58.591Z,28.91
2019-03-27T15:25:27.830Z,28.85
2019-03-27T15:27:57.056Z,27.20
2019-03-27T15:30:26.398Z,25.47
2019-03-27T15:32:55.592Z,24.77
2019-03-27T15:35:24.932Z,24.83
2019-03-27T15:37:54.162Z,24.30
2019-03-27T15:40:38.035Z,23.73
2019-03-27T15:43:07.295Z,22.93
2019-03-27T15:45:36.532Z,23.79
2019-03-27T15:48:05.743Z,23.83
2019-03-27T15:50:35.003Z,22.90
2019-03-27T15:53:04.408Z,22.87
2019-03-27T15:55:33.619Z,22.14
2019-03-27T15:58:03.027Z,22.04
2019-03-27T16:00:32.156Z,23.10
2019-03-27T16:03:01.430Z,23.54
2019-03-27T16:05:30.711Z,23.65
2019-03-27T16:07:59.864Z,23.64
2019-03-27T16:10:29.223Z,24.42
2019-03-27T16:12:58.677Z,24.72
2019-03-27T16:15:28.038Z,24.60
2019-03-27T16:17:57.448Z,24.65
2019-03-27T16:20:26.812Z,24.46
2019-03-27T16:22:55.974Z,24.33
2019-03-27T16:25:25.158Z,24.58
2019-03-27T16:27:54.413Z,24.92
2019-03-27T16:30:23.630Z,25.91
2019-03-27T16:32:52.930Z,26.10
2019-03-27T16:35:22.161Z,26.20
2019-03-27T16:37:52.990Z,26.95
2019-03-27T16:40:37.135Z,27.49
2019-03-27T16:43:06.332Z,28.13
2019-03-27T16:45:35.551Z,28.44
2019-03-27T16:48:04.789Z,28.96
2019-03-27T16:50:34.131Z,29.19
2019-03-27T16:53:04.082Z,29.40
2019-03-27T16:55:33.432Z,29.72
2019-03-27T16:58:02.557Z,30.00
2019-03-27T17:00:32.944Z,30.27
2019-03-27T17:03:02.177Z,30.47
2019-03-27T17:05:31.419Z,30.59
2019-03-27T17:08:00.643Z,30.82
2019-03-27T17:10:29.815Z,30.99
2019-03-27T17:12:59.056Z,31.26
2019-03-27T17:15:28.277Z,31.39
2019-03-27T17:17:58.256Z,31.50
2019-03-27T17:20:27.576Z,31.63
2019-03-27T17:22:56.793Z,31.74
2019-03-27T17:25:27.692Z,31.87
2019-03-27T17:27:56.928Z,31.91
2019-03-27T17:30:26.182Z,31.64
2019-03-27T17:32:55.424Z,31.58
2019-03-27T17:35:24.778Z,31.80
2019-03-27T17:38:13.970Z,31.46
2019-03-27T17:40:43.261Z,31.47
2019-03-27T17:43:12.486Z,30.42
2019-03-27T17:45:41.739Z,30.46
2019-03-27T17:48:10.961Z,30.25
2019-03-27T17:50:40.261Z,29.92
2019-03-27T17:53:09.470Z,29.73
2019-03-27T17:55:38.874Z,29.90
2019-03-27T17:58:10.584Z,29.92
2019-03-27T18:00:48.532Z,29.71
2019-03-27T18:03:17.744Z,29.46
2019-03-27T18:05:46.877Z,29.48
2019-03-27T18:08:16.130Z,29.17
2019-03-27T18:10:45.438Z,29.17
2019-03-27T18:13:14.986Z,28.93
2019-03-27T18:15:44.226Z,28.94
2019-03-27T18:18:13.375Z,28.95
2019-03-27T18:20:42.632Z,28.77
2019-03-27T18:23:12.043Z,28.69
2019-03-27T18:25:41.249Z,28.30
2019-03-27T18:28:10.449Z,28.24
2019-03-27T18:30:39.697Z,28.14
2019-03-27T18:33:08.904Z,27.67
2019-03-27T18:35:38.061Z,27.38
2019-03-27T18:38:07.625Z,27.74
2019-03-27T18:40:36.907Z,27.00
2019-03-27T18:43:06.050Z,26.85
2019-03-27T18:45:35.420Z,27.07
2019-03-27T18:48:08.859Z,26.68
2019-03-27T18:50:38.091Z,26.36
2019-03-27T18:53:07.349Z,26.47
2019-03-27T18:55:36.604Z,26.17
2019-03-27T18:58:05.899Z,26.26
2019-03-27T19:00:35.384Z,26.21
2019-03-27T19:03:04.887Z,26.13
2019-03-27T19:05:34.073Z,26.29
2019-03-27T19:08:03.332Z,25.67
2019-03-27T19:10:32.542Z,25.93
2019-03-27T19:13:01.864Z,25.93
2019-03-27T19:15:31.210Z,25.78
2019-03-27T19:18:00.495Z,26.19
2019-03-27T19:20:29.711Z,25.96
2019-03-27T19:22:59.000Z,26.09
2019-03-27T19:25:28.210Z,26.41
2019-03-27T19:27:57.421Z,26.41
2019-03-27T19:30:26.691Z,26.13
2019-03-27T19:32:55.867Z,26.09
2019-03-27T19:35:25.082Z,26.02
2019-03-27T19:37:54.924Z,25.75
2019-03-27T19:40:24.217Z,25.75
2019-03-27T19:42:53.649Z,25.80
2019-03-27T19:45:23.181Z,25.80
2019-03-27T19:47:52.489Z,25.90
2019-03-27T19:50:21.735Z,25.85
2019-03-27T19:52:50.997Z,26.11
2019-03-27T19:55:20.122Z,25.90
2019-03-27T19:57:49.270Z,25.83
2019-03-27T20:00:19.083Z,26.22
2019-03-27T20:02:48.276Z,25.87
2019-03-27T20:05:17.564Z,25.83
2019-03-27T20:07:46.804Z,26.13
2019-03-27T20:10:16.088Z,26.00
2019-03-27T20:12:45.309Z,25.92
2019-03-27T20:15:14.863Z,26.09
2019-03-27T20:17:44.158Z,26.34
2019-03-27T20:20:14.093Z,26.22
2019-03-27T20:22:43.336Z,26.26
2019-03-27T20:25:14.805Z,26.41
2019-03-27T20:27:43.956Z,26.37
2019-03-27T20:30:18.981Z,26.58
2019-03-27T20:32:48.129Z,26.66
2019-03-27T20:35:17.351Z,27.04
2019-03-27T20:37:48.459Z,26.98
2019-03-27T20:40:18.804Z,27.08
2019-03-27T20:42:48.026Z,27.26
2019-03-27T20:45:17.332Z,27.52
2019-03-27T20:47:46.605Z,27.39
2019-03-27T20:50:16.380Z,27.58
2019-03-27T20:52:45.732Z,27.66
2019-03-27T20:55:29.284Z,27.72
2019-03-27T20:57:46.482Z,27.92
2019-03-27T21:00:16.122Z,27.65
2019-03-27T21:02:45.334Z,27.46
2019-03-27T21:05:14.732Z,27.50
2019-03-27T21:07:43.978Z,27.71
2019-03-27T21:10:13.857Z,27.97
2019-03-27T21:12:43.003Z,27.68
2019-03-27T21:15:12.760Z,27.69
2019-03-27T21:17:41.916Z,27.71
2019-03-27T21:20:11.909Z,27.80
2019-03-27T21:22:41.239Z,28.00
2019-03-27T21:25:10.719Z,27.73
2019-03-27T21:27:39.880Z,27.64
2019-03-27T21:30:10.878Z,27.66
2019-03-27T21:32:40.077Z,27.82
2019-03-27T21:35:10.102Z,27.76
2019-03-27T21:37:39.819Z,28.34
2019-03-27T21:40:09.895Z,28.16
2019-03-27T21:42:39.102Z,27.97
2019-03-27T21:45:10.325Z,28.12
2019-03-27T21:47:39.652Z,28.09
2019-03-27T21:50:09.362Z,28.30
2019-03-27T21:52:38.467Z,28.08
2019-03-27T21:55:21.474Z,28.59
2019-03-27T21:57:39.377Z,28.56
2019-03-27T22:00:09.843Z,28.72
2019-03-27T22:02:39.055Z,28.77
2019-03-27T22:05:08.620Z,28.82
2019-03-27T22:07:37.943Z,28.92
2019-03-27T22:10:08.164Z,29.11
2019-03-27T22:12:38.491Z,29.06
2019-03-27T22:15:09.952Z,28.88
2019-03-27T22:17:39.156Z,28.88
2019-03-27T22:20:08.352Z,28.99
2019-03-27T22:22:37.544Z,28.99
2019-03-27T22:25:09.149Z,28.95
2019-03-27T22:27:38.436Z,29.24
2019-03-27T22:30:08.182Z,29.06
2019-03-27T22:32:37.390Z,29.26
2019-03-27T22:35:08.515Z,29.23
2019-03-27T22:37:37.763Z,29.35
2019-03-27T22:40:07.613Z,29.48
2019-03-27T22:42:36.870Z,29.96
2019-03-27T22:45:07.393Z,29.75
2019-03-27T22:47:36.700Z,29.72
2019-03-27T22:50:08.135Z,29.81
2019-03-27T22:52:38.025Z,29.84
2019-03-27T22:55:08.330Z,29.95
2019-03-27T22:57:37.580Z,30.31
2019-03-27T23:00:11.024Z,30.43
2019-03-27T23:02:41.141Z,30.48
2019-03-27T23:05:10.941Z,30.65
2019-03-27T23:07:40.191Z,30.51
2019-03-27T23:10:09.581Z,30.60
2019-03-27T23:12:38.781Z,30.89
2019-03-27T23:15:09.776Z,31.18
2019-03-27T23:17:38.943Z,30.88
2019-03-27T23:20:08.454Z,30.88
2019-03-27T23:22:37.718Z,31.32
2019-03-27T23:25:07.321Z,31.60
2019-03-27T23:27:36.542Z,31.54
2019-03-27T23:30:07.893Z,31.57
2019-03-27T23:32:37.600Z,31.65
2019-03-27T23:35:08.496Z,31.65
2019-03-27T23:37:37.837Z,31.93
2019-03-27T23:40:07.690Z,32.08
2019-03-27T23:42:36.976Z,32.26
2019-03-27T23:45:08.254Z,32.25
2019-03-27T23:47:37.808Z,32.28
2019-03-27T23:50:08.608Z,32.25
2019-03-27T23:52:37.880Z,32.31
2019-03-27T23:55:07.471Z,32.60
2019-03-27T23:57:37.300Z,32.35
